Time;durP1;ratioP1;P1;durP2;ratioP2;P2;SDS_P1;SDS_P2;PMS_P1;PMS_P2;Temp;Humidity;BMP_temperature;BMP_pressure;BME280_temperature;BME280_humidity;BME280_pressure;Samples;Min_cycle;Max_cycle;Signal;HPM_P1;HPM_P2
2022/01/12 00:00:34;;;;;;;19.38;15.30;;;11.30;75.80;;;;;;5015618;28;20097;-66
2022/01/12 00:02:59;;;;;;;20.52;15.38;;;11.30;75.60;;;;;;5015935;28;20030;-66
2022/01/12 00:05:25;;;;;;;22.52;16.67;;;11.30;75.50;;;;;;5015969;28;20364;-66
2022/01/12 00:07:52;;;;;;;21.25;16.88;;;11.20;75.40;;;;;;5015212;28;20069;-66
2022/01/12 00:10:18;;;;;;;24.70;17.15;;;11.20;75.50;;;;;;5015690;28;20049;-66
2022/01/12 00:12:44;;;;;;;20.90;17.52;;;11.20;75.80;;;;;;5015396;28;20035;-66
2022/01/12 00:15:10;;;;;;;22.80;17.63;;;11.10;75.70;;;;;;5014588;28;20033;-66
2022/01/12 00:17:35;;;;;;;23.67;17.10;;;11.10;75.90;;;;;;5015339;28;20033;-66
2022/01/12 00:20:01;;;;;;;20.90;14.85;;;11.10;76.30;;;;;;5015317;28;20053;-66
2022/01/12 00:22:28;;;;;;;22.48;16.13;;;11.10;76.20;;;;;;5015526;28;20041;-66
2022/01/12 00:35:33;;;;;;;20.63;15.45;;;11.20;77.00;;;;;;5015576;28;20592;-66
2022/01/12 00:37:59;;;;;;;23.25;16.25;;;11.10;77.30;;;;;;5015046;28;20070;-66
2022/01/12 00:40:25;;;;;;;20.98;15.50;;;11.20;77.70;;;;;;5014716;28;20342;-66
2022/01/12 00:42:50;;;;;;;23.77;17.63;;;11.20;77.80;;;;;;5014918;28;20466;-66
2022/01/12 00:45:18;;;;;;;26.50;17.02;;;11.20;77.80;;;;;;5014967;28;20097;-66
2022/01/12 00:47:43;;;;;;;23.80;17.95;;;11.20;77.90;;;;;;5014966;28;20049;-66
2022/01/12 00:50:09;;;;;;;26.92;18.95;;;11.20;78.00;;;;;;5013166;28;20387;-66
2022/01/12 00:52:36;;;;;;;28.13;18.33;;;11.10;78.20;;;;;;5015227;28;20415;-66
2022/01/12 00:55:03;;;;;;;26.23;18.05;;;11.10;78.30;;;;;;5013092;28;20033;-66
2022/01/12 00:57:29;;;;;;;22.85;18.15;;;11.10;78.30;;;;;;5014785;28;20093;-66
2022/01/12 00:59:55;;;;;;;22.55;16.00;;;11.10;78.20;;;;;;5014674;28;20040;-66
2022/01/12 01:02:20;;;;;;;21.17;16.23;;;11.10;78.50;;;;;;5008526;28;20476;-66
2022/01/12 01:04:46;;;;;;;25.05;18.10;;;11.30;78.50;;;;;;4995383;28;20027;-66
2022/01/12 01:07:12;;;;;;;23.42;18.23;;;11.20;78.10;;;;;;4994467;28;20491;-66
2022/01/12 01:09:46;;;;;;;21.73;16.90;;;11.20;78.30;;;;;;4994486;28;20026;-66
2022/01/12 01:12:12;;;;;;;21.58;16.85;;;11.20;78.20;;;;;;4994795;28;20045;-66
2022/01/12 01:14:48;;;;;;;18.05;14.32;;;11.20;78.30;;;;;;4994834;28;20484;-66
2022/01/12 01:25:32;;;;;;;23.25;17.10;;;11.30;78.50;;;;;;4994543;28;20126;-65
2022/01/12 01:28:00;;;;;;;18.67;15.25;;;11.20;78.30;;;;;;4993655;28;20057;-66
2022/01/12 01:30:25;;;;;;;23.85;18.00;;;11.30;78.40;;;;;;4994412;28;20102;-65
2022/01/12 01:32:51;;;;;;;26.27;19.45;;;11.20;78.30;;;;;;4993292;28;20058;-65
2022/01/12 01:35:18;;;;;;;21.75;17.83;;;11.20;78.30;;;;;;4994301;28;20018;-66
2022/01/12 01:37:44;;;;;;;26.83;19.63;;;11.10;78.20;;;;;;4994106;28;20120;-66
2022/01/12 01:40:12;;;;;;;24.20;17.65;;;11.10;78.50;;;;;;4994202;28;20109;-65
2022/01/12 01:43:36;;;;;;;26.60;17.13;;;11.00;78.90;;;;;;4994296;28;20033;-66
2022/01/12 01:53:49;;;;;;;20.63;15.30;;;11.10;78.90;;;;;;4994115;28;20510;-66
2022/01/12 01:56:16;;;;;;;23.27;16.08;;;11.10;78.80;;;;;;4995685;28;20069;-66
2022/01/12 01:58:42;;;;;;;24.23;18.45;;;11.10;78.80;;;;;;4995553;28;20480;-64
2022/01/12 02:01:09;;;;;;;26.45;19.15;;;11.10;78.50;;;;;;4995229;28;20479;-65
2022/01/12 02:03:39;;;;;;;20.98;16.15;;;11.00;78.40;;;;;;4995117;28;20096;-65
2022/01/12 02:06:07;;;;;;;27.58;19.70;;;11.00;78.90;;;;;;4993555;28;20026;-66
2022/01/12 02:08:35;;;;;;;17.98;12.35;;;11.00;78.60;;;;;;4993819;28;20038;-66
2022/01/12 02:11:04;;;;;;;20.92;16.70;;;11.10;79.00;;;;;;4994011;28;20073;-66
2022/01/12 02:13:29;;;;;;;23.08;17.67;;;11.20;78.80;;;;;;4993939;28;20077;-66
2022/01/12 02:15:57;;;;;;;27.00;19.65;;;11.10;78.40;;;;;;4993790;28;20030;-66
2022/01/12 02:18:39;;;;;;;26.77;20.48;;;11.00;78.30;;;;;;4993832;28;20023;-66
2022/01/12 02:40:36;;;;;;;26.58;19.55;;;10.90;78.70;;;;;;4992389;28;20047;-67
2022/01/12 02:43:14;;;;;;;28.88;20.13;;;10.80;78.90;;;;;;4993526;28;20026;-65
2022/01/12 02:51:28;;;;;;;27.48;20.30;;;10.70;79.60;;;;;;4993515;28;20531;-66
2022/01/12 02:53:54;;;;;;;25.25;19.27;;;10.70;79.50;;;;;;5008505;28;20099;-66
2022/01/12 02:56:27;;;;;;;25.77;19.25;;;10.70;79.60;;;;;;4993396;28;20507;-65
2022/01/12 02:58:58;;;;;;;23.17;18.48;;;10.70;79.80;;;;;;4993396;28;20030;-65
2022/01/12 03:03:58;;;;;;;27.05;20.38;;;10.70;80.20;;;;;;4992560;28;20476;-66
2022/01/12 03:06:28;;;;;;;23.70;18.38;;;10.70;80.20;;;;;;4992840;28;20018;-66
2022/01/12 03:08:58;;;;;;;26.10;19.75;;;10.70;80.10;;;;;;4993362;28;20061;-65
2022/01/12 03:11:28;;;;;;;24.95;19.88;;;10.70;79.90;;;;;;4993126;28;20060;-65
2022/01/12 03:13:54;;;;;;;23.42;18.05;;;10.80;79.90;;;;;;4993424;28;20029;-65
2022/01/12 03:16:24;;;;;;;25.92;19.50;;;10.80;79.90;;;;;;4993328;28;20022;-65
2022/01/12 03:18:52;;;;;;;21.92;17.63;;;10.80;79.70;;;;;;4995678;28;20049;-65
2022/01/12 03:21:21;;;;;;;26.85;20.00;;;10.80;79.80;;;;;;4996838;28;20033;-65
2022/01/12 03:23:47;;;;;;;27.58;21.05;;;10.80;80.00;;;;;;4996897;28;20037;-65
2022/01/12 03:26:12;;;;;;;24.77;18.75;;;10.70;79.70;;;;;;4996995;28;20038;-65
2022/01/12 03:28:40;;;;;;;26.25;20.10;;;10.70;79.90;;;;;;4995306;28;20049;-65
2022/01/12 03:31:14;;;;;;;23.27;18.75;;;10.70;79.80;;;;;;4996711;28;20019;-65
2022/01/12 03:39:02;;;;;;;19.70;14.10;;;10.70;79.70;;;;;;4996457;28;20054;-65
2022/01/12 03:41:31;;;;;;;26.55;19.23;;;10.80;80.00;;;;;;4996815;28;20026;-66
2022/01/12 03:43:58;;;;;;;22.48;17.65;;;10.70;79.40;;;;;;4996604;28;20388;-65
2022/01/12 03:46:29;;;;;;;24.27;18.70;;;10.70;79.90;;;;;;4996396;28;20117;-65
2022/01/12 03:48:54;;;;;;;23.35;18.13;;;10.60;79.80;;;;;;4996095;28;20034;-65
2022/01/12 03:51:20;;;;;;;24.58;19.58;;;10.60;79.80;;;;;;4996406;28;20027;-65
2022/01/12 03:53:46;;;;;;;22.90;17.92;;;10.60;80.00;;;;;;4996226;28;20531;-65
2022/01/12 03:56:11;;;;;;;25.98;20.02;;;10.60;80.10;;;;;;4996437;28;20030;-65
2022/01/12 03:58:37;;;;;;;22.75;19.20;;;10.50;79.80;;;;;;4995911;28;20096;-65
2022/01/12 04:01:03;;;;;;;24.35;18.92;;;10.50;80.10;;;;;;4995808;28;20499;-65
2022/01/12 04:03:30;;;;;;;24.60;18.95;;;10.50;80.10;;;;;;4996663;28;20546;-65
2022/01/12 04:08:40;;;;;;;24.58;18.20;;;10.40;80.20;;;;;;4995688;28;20053;-65
2022/01/12 04:11:05;;;;;;;24.98;18.95;;;10.40;80.40;;;;;;4996708;28;20022;-65
2022/01/12 04:13:32;;;;;;;25.63;19.67;;;10.40;80.30;;;;;;4996041;28;20431;-65
2022/01/12 04:16:01;;;;;;;24.83;19.38;;;10.40;80.50;;;;;;4996035;28;20064;-65
2022/01/12 04:18:26;;;;;;;26.38;19.73;;;10.40;80.80;;;;;;4995529;28;20018;-65
2022/01/12 04:20:52;;;;;;;24.55;19.10;;;10.30;80.80;;;;;;4995613;28;20029;-64
2022/01/12 04:23:22;;;;;;;23.15;18.58;;;10.30;81.00;;;;;;4996064;28;20384;-65
2022/01/12 04:25:50;;;;;;;30.60;20.33;;;10.30;81.10;;;;;;4995842;28;20057;-66
2022/01/12 04:28:18;;;;;;;20.50;17.10;;;10.30;80.50;;;;;;4995194;28;20034;-66
2022/01/12 04:30:44;;;;;;;22.35;17.80;;;10.40;79.80;;;;;;4995641;28;20033;-67
2022/01/12 04:33:10;;;;;;;18.90;16.27;;;10.50;79.20;;;;;;5010472;28;20026;-67
2022/01/12 04:35:44;;;;;;;20.38;16.90;;;10.50;78.80;;;;;;4995743;28;20377;-67
2022/01/12 04:38:10;;;;;;;22.15;18.05;;;10.50;78.60;;;;;;4995272;28;20480;-67
2022/01/12 04:40:35;;;;;;;18.27;15.15;;;10.60;78.70;;;;;;5010417;28;20026;-66
2022/01/12 04:43:01;;;;;;;19.75;16.02;;;10.60;78.60;;;;;;5010737;28;20487;-67
2022/01/12 04:50:22;;;;;;;22.35;18.17;;;10.60;78.40;;;;;;4995569;28;20109;-67
2022/01/12 04:52:48;;;;;;;22.23;18.38;;;10.60;78.40;;;;;;4995248;28;20550;-67
2022/01/12 04:55:14;;;;;;;23.27;18.52;;;10.60;78.60;;;;;;5010401;28;20094;-67
2022/01/12 04:57:40;;;;;;;22.85;18.35;;;10.60;78.60;;;;;;4995210;28;20038;-67
2022/01/12 05:00:15;;;;;;;21.88;17.60;;;10.60;78.70;;;;;;4995059;28;20023;-67
2022/01/12 05:08:22;;;;;;;18.17;14.95;;;10.60;78.80;;;;;;4994736;28;20099;-67
2022/01/12 05:13:34;;;;;;;18.38;15.82;;;10.60;79.00;;;;;;4995294;28;20045;-67
2022/01/12 05:16:01;;;;;;;21.73;17.17;;;10.60;79.10;;;;;;4994658;28;20029;-67
2022/01/12 05:18:27;;;;;;;22.52;17.52;;;10.60;79.10;;;;;;4995122;28;20384;-66
2022/01/12 05:20:53;;;;;;;21.23;16.48;;;10.60;79.10;;;;;;4994551;28;20479;-67
2022/01/12 05:23:18;;;;;;;19.80;15.88;;;10.60;79.30;;;;;;4994829;28;20018;-66
2022/01/12 05:25:46;;;;;;;24.85;18.58;;;10.60;79.30;;;;;;4994728;28;20471;-66
2022/01/12 05:28:16;;;;;;;23.25;18.27;;;10.50;79.00;;;;;;5009644;28;20034;-65
2022/01/12 05:30:41;;;;;;;23.30;17.85;;;10.50;79.10;;;;;;4994027;28;20019;-66
2022/01/12 05:33:07;;;;;;;22.40;18.10;;;10.50;79.30;;;;;;4994727;28;20032;-66
2022/01/12 05:35:33;;;;;;;20.90;16.90;;;10.60;79.40;;;;;;4994565;28;20435;-66
2022/01/12 05:38:00;;;;;;;20.80;17.50;;;10.50;79.40;;;;;;4994259;28;20034;-66
2022/01/12 05:40:26;;;;;;;25.65;19.08;;;10.60;79.60;;;;;;4993631;28;20014;-67
2022/01/12 05:42:53;;;;;;;22.42;17.17;;;10.50;79.60;;;;;;4994360;28;20476;-66
2022/01/12 05:45:20;;;;;;;23.08;18.27;;;10.60;79.60;;;;;;4994176;28;20050;-66
2022/01/12 05:50:18;;;;;;;24.95;19.45;;;10.50;79.80;;;;;;4994052;28;20117;-66
2022/01/12 05:52:44;;;;;;;24.83;19.55;;;10.50;79.60;;;;;;4994332;28;20018;-66
2022/01/12 05:55:12;;;;;;;23.80;19.92;;;10.50;79.80;;;;;;4994343;28;20388;-66
2022/01/12 05:57:38;;;;;;;25.05;19.30;;;10.50;79.90;;;;;;4994211;28;20050;-66
2022/01/12 06:00:08;;;;;;;23.92;19.13;;;10.50;79.90;;;;;;5001151;28;20487;-66
2022/01/12 06:02:33;;;;;;;23.02;17.45;;;10.60;80.00;;;;;;5015655;28;20461;-66
2022/01/12 06:05:00;;;;;;;25.50;20.08;;;10.50;80.10;;;;;;5032976;28;20301;-66
2022/01/12 06:07:26;;;;;;;24.20;19.58;;;10.50;80.00;;;;;;5016225;28;20483;-66
2022/01/12 06:09:51;;;;;;;21.95;18.15;;;10.50;80.00;;;;;;5012660;28;20229;-66
2022/01/12 06:12:18;;;;;;;27.30;21.05;;;10.50;80.00;;;;;;5013096;28;20057;-67
2022/01/12 06:14:43;;;;;;;27.88;21.98;;;10.50;80.10;;;;;;5012000;28;20061;-66
2022/01/12 06:17:11;;;;;;;30.40;23.02;;;10.50;80.20;;;;;;5012502;28;20018;-66
2022/01/12 06:19:36;;;;;;;26.02;19.63;;;10.50;80.30;;;;;;5013423;28;20026;-66
2022/01/12 06:22:02;;;;;;;26.92;20.88;;;10.50;80.40;;;;;;5013430;28;20026;-66
2022/01/12 06:24:31;;;;;;;27.75;20.48;;;10.50;80.40;;;;;;5013520;28;20022;-66
2022/01/12 06:26:57;;;;;;;25.05;20.42;;;10.50;80.50;;;;;;5013132;28;20033;-66
2022/01/12 06:29:49;;;;;;;26.90;20.45;;;10.50;80.60;;;;;;5013193;28;20105;-67
2022/01/12 06:32:14;;;;;;;25.85;20.13;;;10.50;80.50;;;;;;5013223;28;20029;-66
2022/01/12 06:34:40;;;;;;;24.55;19.20;;;10.60;80.60;;;;;;5013424;28;20030;-66
2022/01/12 06:37:05;;;;;;;23.60;19.63;;;10.50;80.70;;;;;;5013031;28;20114;-66
2022/01/12 06:39:31;;;;;;;26.40;21.58;;;10.50;80.90;;;;;;5011688;28;20022;-66
2022/01/12 06:41:57;;;;;;;28.30;21.65;;;10.50;81.80;;;;;;5012021;28;20046;-66
2022/01/12 06:44:23;;;;;;;29.25;22.23;;;10.30;82.30;;;;;;5012848;28;20403;-64
2022/01/12 06:46:53;;;;;;;29.58;22.42;;;10.30;82.90;;;;;;5010216;28;20030;-65
2022/01/12 06:49:19;;;;;;;31.90;23.00;;;10.20;83.20;;;;;;5003399;28;20185;-67
2022/01/12 06:51:46;;;;;;;27.90;22.30;;;10.10;83.80;;;;;;5008307;28;20026;-66
2022/01/12 06:54:12;;;;;;;32.03;23.98;;;10.10;83.60;;;;;;5013897;28;20030;-62
2022/01/12 06:56:39;;;;;;;29.67;23.88;;;10.10;83.60;;;;;;5015716;28;20029;-64
2022/01/12 06:59:06;;;;;;;33.72;24.58;;;10.00;84.30;;;;;;5013432;28;20025;-64
2022/01/12 07:01:32;;;;;;;32.95;25.13;;;9.90;84.80;;;;;;5024567;28;20045;-65
2022/01/12 07:03:58;;;;;;;29.13;24.48;;;9.90;85.00;;;;;;5017880;28;20045;-65
2022/01/12 07:06:24;;;;;;;32.15;25.17;;;9.80;85.40;;;;;;5011619;28;20391;-66
2022/01/12 07:08:50;;;;;;;29.60;23.58;;;9.80;85.70;;;;;;5012881;28;20045;-64
2022/01/12 07:11:16;;;;;;;33.53;24.27;;;9.70;85.90;;;;;;5017796;28;20475;-73
2022/01/12 07:13:41;;;;;;;33.10;26.08;;;9.80;86.20;;;;;;5016125;28;20034;-64
2022/01/12 07:16:07;;;;;;;37.38;25.60;;;9.80;85.90;;;;;;5016309;28;20032;-65
2022/01/12 07:18:33;;;;;;;36.50;26.30;;;9.80;85.70;;;;;;5017874;28;20041;-62
2022/01/12 07:20:59;;;;;;;35.60;26.30;;;9.80;85.50;;;;;;5019940;28;20393;-64
2022/01/12 07:23:26;;;;;;;33.22;25.63;;;9.80;85.70;;;;;;5015552;28;20029;-65
2022/01/12 07:25:52;;;;;;;32.50;25.17;;;9.80;85.70;;;;;;5015816;28;20013;-65
2022/01/12 07:28:19;;;;;;;33.13;24.85;;;9.80;85.90;;;;;;5015570;28;20105;-65
2022/01/12 07:30:45;;;;;;;33.70;24.65;;;9.70;86.10;;;;;;5015031;28;20117;-64
2022/01/12 07:33:11;;;;;;;35.25;25.67;;;9.70;86.30;;;;;;5016433;28;20061;-65
2022/01/12 07:35:37;;;;;;;31.63;23.95;;;9.70;86.80;;;;;;5015766;28;20022;-64
2022/01/12 07:38:03;;;;;;;35.35;24.05;;;9.70;86.90;;;;;;5015691;28;20037;-66
2022/01/12 07:40:29;;;;;;;33.35;25.40;;;9.60;87.00;;;;;;5016045;28;20028;-65
2022/01/12 07:42:55;;;;;;;33.60;23.95;;;9.60;87.00;;;;;;5016058;28;20021;-65
2022/01/12 07:45:21;;;;;;;36.60;25.95;;;9.70;87.10;;;;;;5016274;28;20029;-65
2022/01/12 07:47:47;;;;;;;36.90;26.83;;;9.70;87.10;;;;;;5016052;28;20030;-66
2022/01/12 07:50:12;;;;;;;35.08;25.58;;;9.70;87.20;;;;;;5015308;28;20021;-64
2022/01/12 07:52:38;;;;;;;33.03;24.83;;;9.70;87.40;;;;;;5015768;28;20042;-64
2022/01/12 07:55:05;;;;;;;31.40;24.33;;;9.70;87.60;;;;;;5015535;28;20090;-65
2022/01/12 07:57:31;;;;;;;31.65;25.00;;;9.70;87.50;;;;;;5015287;28;20026;-64
2022/01/12 07:59:57;;;;;;;34.63;26.25;;;9.70;87.60;;;;;;5015079;28;20064;-65
2022/01/12 08:02:24;;;;;;;37.33;25.02;;;9.70;87.60;;;;;;5015461;28;20033;-63
2022/01/12 08:04:51;;;;;;;32.90;24.23;;;9.70;87.90;;;;;;5014999;28;20029;-65
2022/01/12 08:07:17;;;;;;;36.05;25.42;;;9.70;87.90;;;;;;5015467;28;20117;-65
2022/01/12 08:09:43;;;;;;;33.60;24.90;;;9.70;88.10;;;;;;5014991;28;20083;-65
2022/01/12 08:12:09;;;;;;;35.08;25.90;;;9.70;88.00;;;;;;5014466;28;20084;-65
2022/01/12 08:14:35;;;;;;;35.38;25.27;;;9.70;87.80;;;;;;5015188;28;20503;-63
2022/01/12 08:17:01;;;;;;;34.10;25.52;;;9.80;87.80;;;;;;5013392;28;20033;-65
2022/01/12 08:19:28;;;;;;;35.78;25.85;;;9.80;88.00;;;;;;5013965;28;20032;-65
2022/01/12 08:21:55;;;;;;;36.08;25.23;;;9.80;88.10;;;;;;5015215;28;20069;-65
2022/01/12 08:24:21;;;;;;;37.90;25.85;;;9.80;88.00;;;;;;5015069;28;20494;-66
2022/01/12 08:26:47;;;;;;;34.10;23.58;;;9.80;87.90;;;;;;5014945;28;20104;-66
2022/01/12 08:29:15;;;;;;;39.60;27.02;;;9.80;88.50;;;;;;5015124;28;20061;-66
2022/01/12 08:31:45;;;;;;;38.95;27.38;;;9.90;88.30;;;;;;5015031;28;20041;-67
2022/01/12 08:34:11;;;;;;;37.80;26.38;;;9.90;87.80;;;;;;5013686;28;20033;-64
2022/01/12 08:36:38;;;;;;;35.15;25.38;;;9.90;87.90;;;;;;5015038;28;20105;-64
2022/01/12 08:39:08;;;;;;;37.00;26.48;;;9.90;88.00;;;;;;5014366;28;20046;-65
2022/01/12 08:41:34;;;;;;;38.25;27.58;;;9.90;87.90;;;;;;5015329;28;20018;-64
2022/01/12 08:43:59;;;;;;;39.15;26.90;;;10.00;87.80;;;;;;5014824;28;20018;-63
2022/01/12 08:46:25;;;;;;;44.25;26.48;;;9.90;88.10;;;;;;5014829;28;20122;-66
2022/01/12 08:48:51;;;;;;;42.22;27.55;;;9.90;88.20;;;;;;5012640;28;20041;-65
2022/01/12 08:51:16;;;;;;;42.97;25.83;;;9.90;88.40;;;;;;5012680;28;20561;-65
2022/01/12 08:53:42;;;;;;;40.42;26.40;;;10.00;88.60;;;;;;5018910;28;20032;-66
2022/01/12 08:56:07;;;;;;;40.47;22.70;;;10.00;88.50;;;;;;5034603;28;20021;-65
2022/01/12 08:58:33;;;;;;;34.33;21.20;;;10.00;89.20;;;;;;5034785;28;20363;-65
2022/01/12 09:01:03;;;;;;;41.05;22.42;;;10.20;89.00;;;;;;5021868;28;20045;-65
2022/01/12 09:03:29;;;;;;;39.05;22.00;;;10.30;88.40;;;;;;5012061;28;20029;-64
2022/01/12 09:05:55;;;;;;;35.83;22.73;;;10.30;88.30;;;;;;5012307;28;20026;-65
2022/01/12 09:08:21;;;;;;;35.78;22.40;;;10.40;88.30;;;;;;5014462;28;20360;-66
2022/01/12 09:10:46;;;;;;;43.72;24.73;;;10.40;88.00;;;;;;5013728;28;20088;-63
2022/01/12 09:13:12;;;;;;;45.95;25.00;;;10.40;88.30;;;;;;5014470;28;20418;-64
2022/01/12 09:15:37;;;;;;;41.00;23.00;;;10.50;89.00;;;;;;5014204;28;20583;-65
2022/01/12 09:18:03;;;;;;;44.83;24.58;;;10.50;88.10;;;;;;5014486;28;20032;-63
2022/01/12 09:20:29;;;;;;;43.60;22.70;;;10.50;88.00;;;;;;5014348;28;20026;-64
2022/01/12 09:22:55;;;;;;;38.65;22.58;;;10.60;88.30;;;;;;5014064;28;20022;-66
2022/01/12 09:25:20;;;;;;;38.13;24.00;;;10.70;87.90;;;;;;5013982;28;20030;-65
2022/01/12 09:27:46;;;;;;;42.13;24.08;;;10.80;88.00;;;;;;5014176;28;20034;-65
2022/01/12 09:30:14;;;;;;;40.10;23.88;;;10.70;88.10;;;;;;5014054;28;20482;-64
2022/01/12 09:32:39;;;;;;;44.60;24.25;;;10.70;88.20;;;;;;5014261;28;20025;-64
2022/01/12 09:35:06;;;;;;;42.10;24.20;;;10.70;88.00;;;;;;5014541;28;20121;-63
2022/01/12 09:37:32;;;;;;;49.42;24.30;;;10.80;88.20;;;;;;5013772;28;20042;-64
2022/01/12 09:39:57;;;;;;;43.00;25.10;;;10.80;88.10;;;;;;5012706;28;20049;-65
2022/01/12 09:42:23;;;;;;;42.33;25.15;;;10.80;88.30;;;;;;5014417;28;20018;-61
2022/01/12 09:44:50;;;;;;;50.20;27.85;;;10.80;89.00;;;;;;5014123;28;20030;-61
2022/01/12 09:47:17;;;;;;;44.97;25.60;;;10.90;88.30;;;;;;5014108;28;20026;-62
2022/01/12 09:49:44;;;;;;;47.60;26.85;;;10.80;88.50;;;;;;5013731;28;20045;-65
2022/01/12 09:52:11;;;;;;;49.45;26.63;;;10.90;88.50;;;;;;5013829;28;20071;-66
2022/01/12 09:54:36;;;;;;;54.42;31.52;;;11.00;88.20;;;;;;5013864;28;20038;-67
2022/01/12 09:57:03;;;;;;;56.00;31.10;;;11.00;88.10;;;;;;5013689;28;20564;-65
2022/01/12 09:59:30;;;;;;;50.75;30.42;;;11.00;88.10;;;;;;5013690;28;20075;-65
2022/01/12 10:01:55;;;;;;;49.35;28.90;;;10.90;88.60;;;;;;5014869;28;20025;-63
2022/01/12 10:04:25;;;;;;;56.30;30.30;;;10.90;89.50;;;;;;5011963;28;20471;-65
2022/01/12 10:06:56;;;;;;;52.25;29.10;;;10.90;89.30;;;;;;5007954;28;20503;-61
2022/01/12 10:09:24;;;;;;;36.88;22.75;;;10.80;89.60;;;;;;5011518;28;20041;-65
2022/01/12 10:11:50;;;;;;;41.95;25.45;;;10.90;89.70;;;;;;5011127;28;20032;-64
2022/01/12 10:14:16;;;;;;;47.70;25.92;;;10.80;89.40;;;;;;5011533;28;20157;-63
2022/01/12 10:16:57;;;;;;;43.88;25.23;;;10.80;90.00;;;;;;5012802;28;20096;-64
2022/01/12 10:19:33;;;;;;;40.22;23.80;;;10.70;90.00;;;;;;5007818;28;20399;-62
2022/01/12 10:22:08;;;;;;;39.47;23.35;;;10.80;90.00;;;;;;5009714;28;20022;-61
2022/01/12 10:24:42;;;;;;;40.08;23.50;;;10.80;90.00;;;;;;5013300;28;20030;-62
2022/01/12 10:27:19;;;;;;;40.05;23.20;;;10.80;89.70;;;;;;5011410;28;20026;-61
2022/01/12 10:29:54;;;;;;;43.92;25.33;;;10.80;89.80;;;;;;5010771;28;20392;-64
2022/01/12 10:32:20;;;;;;;42.42;23.75;;;10.80;90.00;;;;;;5007991;28;20080;-61
2022/01/12 10:34:47;;;;;;;43.30;25.30;;;10.80;89.90;;;;;;5013011;28;20037;-61
2022/01/12 10:37:19;;;;;;;45.53;27.85;;;10.70;89.80;;;;;;5011255;28;20041;-62
2022/01/12 10:39:51;;;;;;;47.42;28.38;;;10.80;89.80;;;;;;5013189;28;20383;-62
2022/01/12 10:42:20;;;;;;;49.13;29.15;;;10.80;89.80;;;;;;5012301;28;20116;-62
2022/01/12 10:44:55;;;;;;;44.38;27.50;;;10.80;89.80;;;;;;5012041;28;20045;-64
2022/01/12 10:47:27;;;;;;;51.72;29.13;;;10.80;89.70;;;;;;5012942;28;20034;-64
2022/01/12 10:49:52;;;;;;;43.58;28.10;;;10.80;89.70;;;;;;5012056;28;20041;-64
2022/01/12 10:52:18;;;;;;;53.53;29.40;;;10.80;90.00;;;;;;5011098;28;20026;-64
2022/01/12 10:55:11;;;;;;;44.25;28.42;;;10.80;89.90;;;;;;5012393;28;20049;-64
2022/01/12 10:57:40;;;;;;;51.15;28.92;;;10.80;89.60;;;;;;5010074;28;20030;-64
2022/01/12 11:00:21;;;;;;;43.03;25.67;;;10.90;90.00;;;;;;5012141;28;20143;-64
2022/01/12 11:02:48;;;;;;;39.90;25.92;;;10.80;89.80;;;;;;5032894;28;20031;-62
2022/01/12 11:05:15;;;;;;;44.75;28.50;;;10.80;90.00;;;;;;5015158;28;20029;-62
2022/01/12 11:07:41;;;;;;;46.70;29.63;;;10.90;90.00;;;;;;5010582;28;20040;-64
2022/01/12 11:10:08;;;;;;;44.63;27.98;;;10.90;90.00;;;;;;5012223;28;20022;-64
2022/01/12 11:12:35;;;;;;;48.95;29.73;;;10.90;89.70;;;;;;5012137;28;20053;-62
2022/01/12 11:15:08;;;;;;;48.00;30.88;;;10.90;89.50;;;;;;5013664;28;20416;-63
2022/01/12 11:17:34;;;;;;;47.13;29.45;;;11.00;89.90;;;;;;5012347;28;20416;-64
2022/01/12 11:20:18;;;;;;;46.33;30.58;;;11.00;89.90;;;;;;5016041;28;20025;-64
2022/01/12 11:22:50;;;;;;;51.80;32.10;;;11.00;89.70;;;;;;5027489;28;20033;-61
2022/01/12 11:25:21;;;;;;;51.75;32.75;;;11.00;89.30;;;;;;5014753;28;20034;-64
2022/01/12 11:27:51;;;;;;;50.60;32.25;;;11.00;89.20;;;;;;5010729;28;20355;-61
2022/01/12 11:30:25;;;;;;;52.38;33.30;;;11.00;89.40;;;;;;5012876;28;20013;-63
2022/01/12 11:33:00;;;;;;;31.23;20.75;;;11.00;89.70;;;;;;5012477;28;20441;-65
2022/01/12 11:35:28;;;;;;;29.60;21.15;;;11.00;87.30;;;;;;5009853;28;20068;-64
2022/01/12 11:37:59;;;;;;;31.50;20.88;;;11.00;87.30;;;;;;5010586;28;20034;-69
2022/01/12 11:40:41;;;;;;;29.95;21.30;;;11.00;87.30;;;;;;5013199;28;20041;-65
2022/01/12 11:43:28;;;;;;;26.95;19.08;;;11.10;87.00;;;;;;5013743;28;20017;-67
2022/01/12 11:46:07;;;;;;;29.17;20.05;;;11.00;87.80;;;;;;5012677;28;20069;-66
2022/01/12 11:48:45;;;;;;;40.30;25.23;;;11.10;89.50;;;;;;5012029;28;20038;-64
2022/01/12 11:51:11;;;;;;;48.72;31.67;;;11.70;90.10;;;;;;5014927;28;20026;-66
2022/01/12 11:53:48;;;;;;;44.78;30.73;;;11.80;87.00;;;;;;5016622;28;20026;-64
2022/01/12 11:56:20;;;;;;;46.38;31.20;;;11.60;87.70;;;;;;5016108;28;20022;-63
2022/01/12 11:58:54;;;;;;;52.05;32.90;;;11.50;87.80;;;;;;5013505;28;20026;-63
2022/01/12 12:01:22;;;;;;;49.72;33.58;;;11.40;87.50;;;;;;5017754;28;20491;-64
2022/01/12 12:04:02;;;;;;;51.15;34.15;;;11.40;88.40;;;;;;5014924;28;20426;-64
2022/01/12 12:06:28;;;;;;;55.38;32.47;;;11.30;87.80;;;;;;5014664;28;20022;-64
2022/01/12 12:09:18;;;;;;;52.67;33.38;;;11.40;88.80;;;;;;5014888;28;20033;-61
2022/01/12 12:11:51;;;;;;;48.25;32.47;;;11.40;89.90;;;;;;5018553;28;20330;-64
2022/01/12 12:14:18;;;;;;;48.00;31.58;;;11.40;89.60;;;;;;5022558;28;20500;-63
2022/01/12 12:16:45;;;;;;;49.97;31.70;;;11.40;89.40;;;;;;5008193;28;20022;-65
2022/01/12 12:19:10;;;;;;;52.05;31.45;;;11.40;89.40;;;;;;5017919;28;20422;-63
2022/01/12 12:21:37;;;;;;;46.53;30.77;;;11.40;89.80;;;;;;5019439;28;20553;-62
2022/01/12 12:24:13;;;;;;;52.05;32.78;;;11.40;89.70;;;;;;5012314;28;20108;-65
2022/01/12 12:26:52;;;;;;;47.78;30.17;;;11.40;89.40;;;;;;5014710;28;20113;-63
2022/01/12 12:29:25;;;;;;;49.90;31.00;;;11.50;90.10;;;;;;5010891;28;20117;-65
2022/01/12 12:31:52;;;;;;;46.95;31.85;;;11.50;90.00;;;;;;5014034;28;20022;-66
2022/01/12 12:34:22;;;;;;;50.85;32.55;;;11.60;90.20;;;;;;5012207;28;20442;-60
2022/01/12 12:36:56;;;;;;;49.47;30.75;;;11.60;89.60;;;;;;5010716;28;20065;-63
2022/01/12 12:39:22;;;;;;;49.25;34.40;;;11.60;90.00;;;;;;5016108;28;20030;-62
2022/01/12 12:41:48;;;;;;;49.97;33.72;;;11.60;89.40;;;;;;5012707;28;20097;-64
2022/01/12 12:44:25;;;;;;;50.78;33.28;;;11.60;89.20;;;;;;5008788;28;20037;-68
2022/01/12 12:47:03;;;;;;;55.80;33.83;;;11.60;89.60;;;;;;5011986;28;20022;-64
2022/01/12 12:49:29;;;;;;;50.38;33.90;;;11.70;90.00;;;;;;5010169;28;20044;-63
2022/01/12 12:52:01;;;;;;;52.50;35.92;;;11.70;89.60;;;;;;5012140;28;20025;-64
2022/01/12 12:54:26;;;;;;;50.80;35.05;;;11.70;87.70;;;;;;5011881;28;20033;-66
2022/01/12 12:56:54;;;;;;;49.97;32.90;;;11.70;89.80;;;;;;5012284;28;20088;-65
2022/01/12 12:59:21;;;;;;;53.63;34.35;;;11.90;89.60;;;;;;5011849;28;20639;-64
2022/01/12 13:01:46;;;;;;;52.75;34.50;;;11.90;88.80;;;;;;5009742;28;20033;-65
2022/01/12 13:04:13;;;;;;;53.10;34.97;;;11.90;87.80;;;;;;5011550;28;20034;-62
2022/01/12 13:06:39;;;;;;;49.42;32.63;;;11.90;87.70;;;;;;5009058;28;20032;-63
2022/01/12 13:09:09;;;;;;;52.78;34.03;;;12.00;87.40;;;;;;5010155;28;20041;-64
2022/01/12 13:11:37;;;;;;;54.10;34.83;;;12.00;87.10;;;;;;5010102;28;20033;-63
2022/01/12 13:14:06;;;;;;;51.85;35.90;;;12.00;87.00;;;;;;5008652;28;20058;-61
2022/01/12 13:16:33;;;;;;;52.05;35.05;;;12.10;86.70;;;;;;5010622;28;20025;-64
2022/01/12 13:19:06;;;;;;;48.90;34.15;;;12.10;86.40;;;;;;5009710;28;20106;-63
2022/01/12 13:21:34;;;;;;;53.47;35.10;;;12.20;86.60;;;;;;5008569;28;20028;-61
2022/01/12 13:24:00;;;;;;;55.38;35.22;;;12.20;85.80;;;;;;5011408;28;20501;-65
2022/01/12 13:26:31;;;;;;;53.45;36.08;;;12.20;85.80;;;;;;5011088;28;20032;-65
2022/01/12 13:28:59;;;;;;;52.53;36.03;;;12.20;85.60;;;;;;5006216;28;20121;-62
2022/01/12 13:31:24;;;;;;;54.47;36.70;;;12.20;85.60;;;;;;5010337;28;20018;-62
2022/01/12 13:33:56;;;;;;;52.40;36.17;;;12.20;85.40;;;;;;5012213;28;20029;-64
2022/01/12 13:36:24;;;;;;;60.45;37.90;;;12.30;85.50;;;;;;5014603;28;20017;-64
2022/01/12 13:39:07;;;;;;;56.58;36.70;;;12.20;85.30;;;;;;5008514;28;20066;-64
2022/01/12 13:41:45;;;;;;;56.08;37.45;;;12.30;85.10;;;;;;5009688;28;20025;-64
2022/01/12 13:44:17;;;;;;;61.38;39.17;;;12.30;84.90;;;;;;5009365;28;20164;-63
2022/01/12 13:49:29;;;;;;;62.50;40.33;;;12.40;84.70;;;;;;5005763;28;20069;-62
2022/01/12 13:52:08;;;;;;;59.92;40.60;;;12.40;84.50;;;;;;5011066;28;20111;-64
2022/01/12 13:54:44;;;;;;;63.00;41.17;;;12.40;84.30;;;;;;5011572;28;20239;-63